createdAt,value
2023-04-29T00:02:31.202Z,1001.92
2023-04-29T00:05:29.276Z,1001.83
2023-04-29T00:08:39.646Z,1001.93
2023-04-29T00:11:48.242Z,1001.90
2023-04-29T00:14:56.066Z,1001.88
2023-04-29T00:18:06.983Z,1001.92
2023-04-29T00:21:15.484Z,1001.88
2023-04-29T00:24:23.856Z,1001.88
2023-04-29T00:27:33.182Z,1001.84
2023-04-29T00:30:40.893Z,1001.91
2023-04-29T00:33:48.645Z,1001.88
2023-04-29T00:36:57.226Z,1001.96
2023-04-29T00:40:06.427Z,1001.92
2023-04-29T00:43:14.245Z,1001.93
2023-04-29T00:46:22.083Z,1001.90
2023-04-29T00:49:31.258Z,1002.02
2023-04-29T00:52:39.192Z,1002.05
2023-04-29T00:55:46.999Z,1002.03
2023-04-29T00:58:56.084Z,1002.03
2023-04-29T01:02:03.995Z,1002.03
2023-04-29T01:05:11.786Z,1002.08
2023-04-29T01:08:20.962Z,1002.06
2023-04-29T01:11:29.023Z,1002.12
2023-04-29T01:14:36.941Z,1002.12
2023-04-29T01:17:44.823Z,1002.15
2023-04-29T01:20:53.997Z,1002.22
2023-04-29T01:24:01.894Z,1002.22
2023-04-29T01:27:10.049Z,1002.23
2023-04-29T01:30:19.275Z,1002.24
2023-04-29T01:33:26.964Z,1002.25
2023-04-29T01:36:34.655Z,1002.26
2023-04-29T01:39:43.719Z,1002.28
2023-04-29T01:42:51.674Z,1002.27
2023-04-29T01:45:59.413Z,1002.34
2023-04-29T01:49:08.585Z,1002.37
2023-04-29T01:52:16.310Z,1002.42
2023-04-29T01:55:24.085Z,1002.52
2023-04-29T01:58:33.494Z,1002.50
2023-04-29T02:01:41.218Z,1002.40
2023-04-29T02:04:48.970Z,1002.53
2023-04-29T02:07:56.690Z,1002.52
2023-04-29T02:11:05.765Z,1002.53
2023-04-29T02:14:13.465Z,1002.61
2023-04-29T02:17:21.476Z,1002.70
2023-04-29T02:20:30.755Z,1002.72
2023-04-29T02:23:38.610Z,1002.75
2023-04-29T02:26:46.377Z,1002.82
2023-04-29T02:29:55.675Z,1002.77
2023-04-29T02:33:03.877Z,1002.81
2023-04-29T02:36:12.483Z,1002.93
2023-04-29T02:39:21.502Z,1002.85
2023-04-29T02:42:29.187Z,1002.90
2023-04-29T02:45:36.942Z,1002.91
2023-04-29T02:48:44.768Z,1002.93
2023-04-29T02:51:54.016Z,1002.88
2023-04-29T02:55:01.827Z,1002.87
2023-04-29T02:58:09.515Z,1002.93
2023-04-29T03:01:18.709Z,1002.97
2023-04-29T03:04:26.615Z,1002.93
2023-04-29T03:07:34.563Z,1002.93
2023-04-29T03:10:43.731Z,1002.94
2023-04-29T03:13:51.615Z,1002.95
2023-04-29T03:16:59.444Z,1002.98
2023-04-29T03:20:09.467Z,1002.97
2023-04-29T03:23:17.322Z,1002.99
2023-04-29T03:26:26.052Z,1002.97
2023-04-29T03:29:33.849Z,1002.99
2023-04-29T03:32:43.168Z,1003.06
2023-04-29T03:35:50.901Z,1003.09
2023-04-29T03:38:58.820Z,1003.07
2023-04-29T03:42:08.012Z,1003.10
2023-04-29T03:45:16.587Z,1003.13
2023-04-29T03:48:24.225Z,1003.16
2023-04-29T03:51:33.445Z,1003.09
2023-04-29T03:54:41.166Z,1003.14
2023-04-29T03:57:48.818Z,1003.17
2023-04-29T04:00:58.127Z,1003.17
2023-04-29T04:04:05.956Z,1003.26
2023-04-29T04:07:13.667Z,1003.32
2023-04-29T04:10:22.841Z,1003.38
2023-04-29T04:13:30.621Z,1003.49
2023-04-29T04:16:38.447Z,1003.53
2023-04-29T04:19:46.401Z,1003.62
2023-04-29T04:22:55.599Z,1003.70
2023-04-29T04:26:03.563Z,1003.71
2023-04-29T04:29:11.266Z,1003.84
2023-04-29T04:32:20.556Z,1003.93
2023-04-29T04:35:28.317Z,1003.97
2023-04-29T04:38:36.060Z,1003.99
2023-04-29T04:41:45.265Z,1004.01
2023-04-29T04:44:53.239Z,1004.10
2023-04-29T04:48:01.155Z,1004.11
2023-04-29T04:51:10.300Z,1004.19
2023-04-29T04:54:18.302Z,1004.19
2023-04-29T04:57:26.513Z,1004.21
2023-04-29T05:00:34.247Z,1004.39
2023-04-29T05:03:43.839Z,1004.37
2023-04-29T05:06:51.776Z,1004.44
2023-04-29T05:09:59.485Z,1004.53
2023-04-29T05:13:08.698Z,1004.56
2023-04-29T05:16:16.910Z,1004.61
2023-04-29T05:19:24.688Z,1004.63
2023-04-29T05:22:33.886Z,1004.72
2023-04-29T05:25:41.876Z,1004.72
2023-04-29T05:28:50.869Z,1004.82
2023-04-29T05:32:00.384Z,1004.78
2023-04-29T05:35:08.142Z,1004.89
2023-04-29T05:38:16.179Z,1004.92
2023-04-29T05:41:25.558Z,1004.97
2023-04-29T05:44:33.735Z,1004.94
2023-04-29T05:47:41.507Z,1005.03
2023-04-29T05:50:49.186Z,1005.09
2023-04-29T05:53:58.522Z,1005.21
2023-04-29T05:57:06.107Z,1005.19
2023-04-29T06:00:15.459Z,1005.21
2023-04-29T06:03:14.912Z,1005.27
2023-04-29T06:06:22.710Z,1005.33
2023-04-29T06:09:30.761Z,1005.37
2023-04-29T06:12:40.042Z,1005.41
2023-04-29T06:15:48.091Z,1005.50
2023-04-29T06:18:57.543Z,1005.51
2023-04-29T06:22:07.521Z,1005.58
2023-04-29T06:25:15.497Z,1005.65
2023-04-29T06:28:23.445Z,1005.73
2023-04-29T06:31:31.166Z,1005.78
2023-04-29T06:34:40.444Z,1005.87
2023-04-29T06:37:48.191Z,1005.96
2023-04-29T06:40:56.083Z,1005.97
2023-04-29T06:44:05.472Z,1005.99
2023-04-29T06:47:13.441Z,1006.03
2023-04-29T06:50:21.505Z,1006.05
2023-04-29T06:53:30.667Z,1006.12
2023-04-29T06:56:38.723Z,1006.11
2023-04-29T06:59:46.880Z,1006.27
2023-04-29T07:02:56.105Z,1006.32
2023-04-29T07:06:03.788Z,1006.33
2023-04-29T07:09:11.545Z,1006.44
2023-04-29T07:12:20.428Z,1006.49
2023-04-29T07:15:29.532Z,1006.58
2023-04-29T07:18:37.989Z,1006.58
2023-04-29T07:21:45.767Z,1006.69
2023-04-29T07:24:55.170Z,1006.73
2023-04-29T07:28:02.912Z,1006.87
2023-04-29T07:31:11.053Z,1006.89
2023-04-29T07:34:20.741Z,1006.96
2023-04-29T07:37:28.518Z,1007.00
2023-04-29T07:40:36.333Z,1006.97
2023-04-29T07:43:45.464Z,1007.01
2023-04-29T07:46:53.354Z,1007.11
2023-04-29T07:50:00.994Z,1007.13
2023-04-29T07:53:10.188Z,1007.22
2023-04-29T07:56:17.891Z,1007.26
2023-04-29T07:59:25.563Z,1007.25
2023-04-29T08:02:33.931Z,1007.40
2023-04-29T08:05:43.660Z,1007.39
2023-04-29T08:08:51.324Z,1007.42
2023-04-29T08:11:59.074Z,1007.50
2023-04-29T08:15:09.744Z,1007.53
2023-04-29T08:18:17.899Z,1007.51
2023-04-29T08:21:25.675Z,1007.50
2023-04-29T08:24:34.707Z,1007.58
2023-04-29T08:27:42.551Z,1007.56
2023-04-29T08:30:50.367Z,1007.62
2023-04-29T08:33:59.519Z,1007.64
2023-04-29T08:37:07.232Z,1007.62
2023-04-29T08:40:15.111Z,1007.75
2023-04-29T08:43:22.848Z,1007.79
2023-04-29T08:46:32.075Z,1007.92
2023-04-29T08:49:39.743Z,1007.92
2023-04-29T08:52:47.441Z,1007.89
2023-04-29T08:55:56.740Z,1007.93
2023-04-29T08:59:04.509Z,1007.83
2023-04-29T09:02:13.311Z,1007.78
2023-04-29T09:05:22.895Z,1007.85
2023-04-29T09:08:30.516Z,1007.81
2023-04-29T09:11:39.113Z,1007.91
2023-04-29T09:14:49.154Z,1007.87
2023-04-29T09:17:56.883Z,1007.89
2023-04-29T09:21:05.411Z,1007.81
2023-04-29T09:24:14.106Z,1007.91
2023-04-29T09:27:23.284Z,1007.96
2023-04-29T09:30:31.836Z,1008.05
2023-04-29T09:33:39.880Z,1007.95
2023-04-29T09:36:49.379Z,1008.01
2023-04-29T09:39:57.860Z,1008.01
2023-04-29T09:43:05.846Z,1008.24
2023-04-29T09:46:15.360Z,1008.17
2023-04-29T09:49:23.937Z,1008.19
2023-04-29T09:52:31.971Z,1008.23
2023-04-29T09:55:41.582Z,1008.21
2023-04-29T09:58:49.705Z,1008.11
2023-04-29T10:01:58.473Z,1008.09
2023-04-29T10:05:08.154Z,1008.10
2023-04-29T10:08:16.106Z,1008.19
2023-04-29T10:11:24.672Z,1008.19
2023-04-29T10:14:32.325Z,1008.30
2023-04-29T10:17:42.161Z,1008.27
2023-04-29T10:20:50.677Z,1008.21
2023-04-29T10:23:58.479Z,1008.25
2023-04-29T10:27:08.334Z,1008.25
2023-04-29T10:30:16.340Z,1008.27
2023-04-29T10:33:24.975Z,1008.31
2023-04-29T10:36:34.400Z,1008.43
2023-04-29T10:39:42.729Z,1008.34
2023-04-29T10:42:50.504Z,1008.41
2023-04-29T10:46:00.623Z,1008.51
2023-04-29T10:49:08.374Z,1008.47
2023-04-29T10:52:17.024Z,1008.58
2023-04-29T10:55:25.123Z,1008.57
2023-04-29T10:58:34.230Z,1008.51
2023-04-29T11:01:42.880Z,1008.62
2023-04-29T11:04:50.925Z,1008.56
2023-04-29T11:08:00.464Z,1008.54
2023-04-29T11:11:08.963Z,1008.60
2023-04-29T11:14:17.146Z,1008.63
2023-04-29T11:17:28.347Z,1008.58
2023-04-29T11:20:36.854Z,1008.53
2023-04-29T11:23:45.026Z,1008.55
2023-04-29T11:26:54.497Z,1008.52
2023-04-29T11:30:02.778Z,1008.55
2023-04-29T11:33:10.651Z,1008.55
2023-04-29T11:36:20.141Z,1008.52
2023-04-29T11:39:28.280Z,1008.52
2023-04-29T11:42:36.029Z,1008.52
2023-04-29T11:45:44.237Z,1008.54
2023-04-29T11:48:53.842Z,1008.71
2023-04-29T11:52:02.003Z,1008.73
2023-04-29T11:55:10.425Z,1008.75
2023-04-29T11:58:20.010Z,1008.72
2023-04-29T12:01:28.263Z,1008.86
2023-04-29T12:04:37.100Z,1008.80
2023-04-29T12:07:46.672Z,1008.75
2023-04-29T12:10:54.874Z,1008.80
2023-04-29T12:14:03.344Z,1008.81
2023-04-29T12:17:12.841Z,1008.84
2023-04-29T12:20:21.779Z,1008.89
2023-04-29T12:23:29.582Z,1008.89
2023-04-29T12:26:38.145Z,1008.95
2023-04-29T12:29:48.036Z,1008.94
2023-04-29T12:32:55.880Z,1008.97
2023-04-29T12:36:04.487Z,1008.96
2023-04-29T12:39:14.397Z,1009.00
2023-04-29T12:42:22.153Z,1009.03
2023-04-29T12:45:30.759Z,1008.97
2023-04-29T12:48:41.514Z,1009.01
2023-04-29T12:51:49.623Z,1009.00
2023-04-29T12:54:58.210Z,1009.06
2023-04-29T12:58:07.765Z,1009.02
2023-04-29T13:01:18.423Z,1009.05
2023-04-29T13:04:16.205Z,1008.95
2023-04-29T13:07:26.019Z,1008.92
2023-04-29T13:10:34.492Z,1008.91
2023-04-29T13:13:43.148Z,1008.96
2023-04-29T13:16:51.500Z,1008.94
2023-04-29T13:20:00.995Z,1009.01
2023-04-29T13:23:09.134Z,1008.93
2023-04-29T13:26:17.570Z,1008.98
2023-04-29T13:29:27.307Z,1008.99
2023-04-29T13:32:43.980Z,1008.95
2023-04-29T13:35:41.371Z,1008.97
2023-04-29T13:38:55.074Z,1008.99
2023-04-29T13:41:58.344Z,1009.13
2023-04-29T13:44:56.936Z,1008.95
2023-04-29T13:48:20.103Z,1009.07
2023-04-29T13:51:34.515Z,1009.08
2023-04-29T13:58:02.790Z,1009.09
2023-04-29T14:03:25.030Z,1009.12
2023-04-29T14:06:33.272Z,1009.17
2023-04-29T14:09:43.399Z,1009.15
2023-04-29T14:12:51.902Z,1009.27
2023-04-29T14:16:00.235Z,1009.29
2023-04-29T14:19:10.041Z,1009.32
2023-04-29T14:22:18.250Z,1009.33
2023-04-29T14:25:28.488Z,1009.37
2023-04-29T14:28:27.790Z,1009.39
2023-04-29T14:31:36.837Z,1009.51
2023-04-29T14:34:45.271Z,1009.52
2023-04-29T14:37:53.340Z,1009.58
2023-04-29T14:41:03.845Z,1009.61
2023-04-29T14:44:12.279Z,1009.69
2023-04-29T14:47:20.768Z,1009.71
2023-04-29T14:50:30.600Z,1009.77
2023-04-29T14:53:38.977Z,1009.78
2023-04-29T14:56:47.783Z,1009.82
2023-04-29T14:59:58.014Z,1009.80
2023-04-29T15:03:06.475Z,1009.89
2023-04-29T15:06:15.539Z,1009.90
2023-04-29T15:09:25.974Z,1009.86
2023-04-29T15:12:34.322Z,1009.93
2023-04-29T15:15:42.985Z,1009.82
2023-04-29T15:18:52.239Z,1009.99
2023-04-29T15:22:02.579Z,1009.95
2023-04-29T15:25:10.913Z,1010.05
2023-04-29T15:28:19.946Z,1010.05
2023-04-29T15:31:30.820Z,1009.98
2023-04-29T15:34:39.653Z,1010.06
2023-04-29T15:37:48.014Z,1010.08
2023-04-29T15:40:57.901Z,1010.08
2023-04-29T15:44:06.010Z,1010.12
2023-04-29T15:47:15.489Z,1010.11
2023-04-29T15:50:25.590Z,1010.07
2023-04-29T15:53:34.683Z,1010.14
2023-04-29T15:56:43.064Z,1010.13
2023-04-29T15:59:53.469Z,1010.24
2023-04-29T16:03:02.577Z,1010.20
2023-04-29T16:06:11.187Z,1010.16
2023-04-29T16:09:19.534Z,1010.24
2023-04-29T16:12:29.440Z,1010.23
2023-04-29T16:15:38.129Z,1010.27
2023-04-29T16:18:46.164Z,1010.34
2023-04-29T16:21:56.414Z,1010.33
2023-04-29T16:25:05.097Z,1010.27
2023-04-29T16:28:05.911Z,1010.31
2023-04-29T16:28:49.151Z,1010.34
2023-04-29T16:31:58.833Z,1010.31
2023-04-29T16:35:08.488Z,1010.35
2023-04-29T16:38:16.960Z,1010.39
2023-04-29T16:41:26.790Z,1010.53
2023-04-29T16:44:36.003Z,1010.57
2023-04-29T16:47:44.402Z,1010.63
2023-04-29T16:50:54.727Z,1010.60
2023-04-29T16:54:03.062Z,1010.59
2023-04-29T16:57:12.119Z,1010.62
2023-04-29T17:00:20.700Z,1010.64
2023-04-29T17:03:30.653Z,1010.66
2023-04-29T17:06:40.106Z,1010.65
2023-04-29T17:09:48.525Z,1010.72
2023-04-29T17:12:59.170Z,1010.64
2023-04-29T17:16:07.786Z,1010.72
2023-04-29T17:19:16.646Z,1010.68
2023-04-29T17:22:26.849Z,1010.71
2023-04-29T17:25:35.153Z,1010.84
2023-04-29T17:28:43.663Z,1010.77
2023-04-29T17:31:53.880Z,1010.87
2023-04-29T17:35:02.908Z,1010.94
2023-04-29T17:38:11.725Z,1010.92
2023-04-29T17:41:21.416Z,1010.94
2023-04-29T17:44:30.701Z,1010.98
2023-04-29T17:47:38.989Z,1011.02
2023-04-29T17:50:48.267Z,1011.01
2023-04-29T17:53:58.548Z,1011.03
2023-04-29T17:57:07.319Z,1011.11
2023-04-29T18:00:16.067Z,1011.15
2023-04-29T18:03:26.601Z,1011.21
2023-04-29T18:06:35.743Z,1011.18
2023-04-29T18:09:44.622Z,1011.20
2023-04-29T18:12:54.839Z,1011.28
2023-04-29T18:16:03.542Z,1011.36
2023-04-29T18:19:12.849Z,1011.41
2023-04-29T18:22:23.190Z,1011.40
2023-04-29T18:25:31.701Z,1011.41
2023-04-29T18:28:40.112Z,1011.41
2023-04-29T18:31:48.845Z,1011.40
2023-04-29T18:34:58.358Z,1011.42
2023-04-29T18:38:07.150Z,1011.45
2023-04-29T18:38:50.532Z,1011.53
2023-04-29T18:41:59.590Z,1011.50
2023-04-29T18:45:00.475Z,1011.64
2023-04-29T18:48:09.170Z,1011.66
2023-04-29T18:51:17.776Z,1011.81
2023-04-29T18:54:27.478Z,1011.78
2023-04-29T18:57:35.967Z,1011.78
2023-04-29T19:00:44.589Z,1011.85
2023-04-29T19:03:55.336Z,1011.99
2023-04-29T19:07:04.009Z,1011.93
2023-04-29T19:10:12.441Z,1012.03
2023-04-29T19:13:22.327Z,1012.04
2023-04-29T19:16:31.291Z,1012.07
2023-04-29T19:19:39.828Z,1012.13
2023-04-29T19:22:49.156Z,1012.26
2023-04-29T19:25:58.841Z,1012.24
2023-04-29T19:29:07.264Z,1012.29
2023-04-29T19:32:16.576Z,1012.35
2023-04-29T19:35:26.305Z,1012.34
2023-04-29T19:38:34.640Z,1012.43
2023-04-29T19:41:43.472Z,1012.41
2023-04-29T19:44:53.361Z,1012.48
2023-04-29T19:48:02.351Z,1012.54
2023-04-29T19:51:10.536Z,1012.58
2023-04-29T19:54:11.100Z,1012.59
2023-04-29T19:57:20.430Z,1012.63
2023-04-29T20:00:29.483Z,1012.69
2023-04-29T20:03:37.794Z,1012.72
2023-04-29T20:06:48.240Z,1012.74
2023-04-29T20:09:57.130Z,1012.82
2023-04-29T20:13:05.734Z,1012.85
2023-04-29T20:16:15.989Z,1012.88
2023-04-29T20:19:24.285Z,1012.93
2023-04-29T20:22:33.023Z,1012.96
2023-04-29T20:25:43.831Z,1013.05
2023-04-29T20:28:52.696Z,1013.12
2023-04-29T20:32:01.654Z,1013.17
2023-04-29T20:35:03.478Z,1013.18
2023-04-29T20:38:13.158Z,1013.20
2023-04-29T20:41:21.306Z,1013.28
2023-04-29T20:44:31.390Z,1013.27
2023-04-29T20:47:40.521Z,1013.34
2023-04-29T20:50:49.461Z,1013.36
2023-04-29T20:53:58.464Z,1013.38
2023-04-29T20:57:08.655Z,1013.45
2023-04-29T21:00:19.411Z,1013.50
2023-04-29T21:03:27.975Z,1013.50
2023-04-29T21:06:38.074Z,1013.51
2023-04-29T21:09:46.969Z,1013.62
2023-04-29T21:12:55.330Z,1013.62
2023-04-29T21:16:05.134Z,1013.65
2023-04-29T21:19:13.956Z,1013.74
2023-04-29T21:22:22.793Z,1013.70
2023-04-29T21:25:31.946Z,1013.73
2023-04-29T21:28:40.383Z,1013.79
2023-04-29T21:31:48.619Z,1013.84
2023-04-29T21:34:57.219Z,1013.79
2023-04-29T21:38:07.792Z,1013.93
2023-04-29T21:41:16.175Z,1013.90
2023-04-29T21:44:24.618Z,1013.94
2023-04-29T21:47:34.552Z,1013.98
2023-04-29T21:50:43.436Z,1013.99
2023-04-29T21:53:52.418Z,1013.98
2023-04-29T21:57:02.448Z,1014.07
2023-04-29T22:00:10.648Z,1014.05
2023-04-29T22:03:20.168Z,1014.11
2023-04-29T22:06:29.949Z,1014.06
2023-04-29T22:09:38.494Z,1014.12
2023-04-29T22:12:47.038Z,1014.16
2023-04-29T22:15:57.657Z,1014.17
2023-04-29T22:19:05.955Z,1014.24
2023-04-29T22:22:14.824Z,1014.25
2023-04-29T22:25:23.618Z,1014.26
2023-04-29T22:28:33.553Z,1014.33
2023-04-29T22:31:42.617Z,1014.35
2023-04-29T22:34:50.479Z,1014.36
2023-04-29T22:38:00.545Z,1014.32
2023-04-29T22:41:09.000Z,1014.35
2023-04-29T22:44:17.964Z,1014.34
2023-04-29T22:47:27.713Z,1014.35
2023-04-29T22:50:36.538Z,1014.39
2023-04-29T22:53:44.938Z,1014.36
2023-04-29T22:56:55.341Z,1014.33
2023-04-29T23:00:04.050Z,1014.40
2023-04-29T23:03:12.435Z,1014.46
2023-04-29T23:06:21.553Z,1014.52
2023-04-29T23:09:31.633Z,1014.56
2023-04-29T23:12:40.565Z,1014.63
2023-04-29T23:15:49.480Z,1014.73
2023-04-29T23:19:00.203Z,1014.71
2023-04-29T23:22:08.630Z,1014.67
2023-04-29T23:25:17.802Z,1014.72
2023-04-29T23:28:27.771Z,1014.66
2023-04-29T23:31:36.681Z,1014.70
2023-04-29T23:34:46.149Z,1014.75
2023-04-29T23:37:55.837Z,1014.76
2023-04-29T23:41:04.888Z,1014.80
2023-04-29T23:44:13.730Z,1014.76
2023-04-29T23:47:24.344Z,1014.81
2023-04-29T23:50:32.607Z,1014.76
2023-04-29T23:53:42.337Z,1014.82
2023-04-29T23:56:50.519Z,1014.80
